Time;durP1;ratioP1;P1;durP2;ratioP2;P2;SDS_P1;SDS_P2;PMS_P1;PMS_P2;Temp;Humidity;BMP_temperature;BMP_pressure;BME280_temperature;BME280_humidity;BME280_pressure;Samples;Min_cycle;Max_cycle;Signal;HPM_P1;HPM_P2
2021/10/05 00:01:43;;;;;;;14.32;8.90;;;14.40;99.90;;;;;;5052084;28;20291;-71
2021/10/05 00:04:10;;;;;;;11.90;7.22;;;14.50;99.90;;;;;;5052856;28;20204;-71
2021/10/05 00:06:37;;;;;;;9.80;7.97;;;14.50;99.90;;;;;;5052762;28;20564;-71
2021/10/05 00:09:04;;;;;;;14.02;8.00;;;14.50;99.90;;;;;;5052393;28;20199;-70
2021/10/05 00:11:31;;;;;;;12.52;8.32;;;14.60;99.90;;;;;;5052599;28;20580;-71
2021/10/05 00:13:59;;;;;;;9.80;7.55;;;14.60;99.90;;;;;;5052901;28;20209;-73
2021/10/05 00:16:26;;;;;;;11.68;7.93;;;14.60;99.90;;;;;;5054298;28;20314;-72
2021/10/05 00:18:53;;;;;;;11.60;8.15;;;14.50;99.90;;;;;;5052754;28;20200;-70
2021/10/05 00:21:20;;;;;;;13.65;8.85;;;14.40;99.90;;;;;;5051663;28;20208;-70
2021/10/05 00:23:47;;;;;;;11.00;8.15;;;14.30;99.90;;;;;;5051651;28;20385;-70
2021/10/05 00:26:15;;;;;;;13.00;9.10;;;14.30;99.90;;;;;;5051849;28;20235;-71
2021/10/05 00:28:42;;;;;;;12.57;8.57;;;14.20;99.90;;;;;;5052343;28;20214;-70
2021/10/05 00:31:10;;;;;;;15.50;9.77;;;14.00;99.90;;;;;;5051873;28;20203;-70
2021/10/05 00:33:37;;;;;;;14.68;9.23;;;14.00;99.90;;;;;;5051901;28;20594;-71
2021/10/05 00:36:05;;;;;;;13.23;8.80;;;13.80;99.90;;;;;;5052021;28;20223;-71
2021/10/05 00:38:32;;;;;;;14.57;9.68;;;13.70;99.90;;;;;;5051683;28;20547;-78
2021/10/05 00:40:58;;;;;;;14.43;9.45;;;13.60;99.90;;;;;;5051757;28;20574;-75
2021/10/05 00:43:25;;;;;;;18.55;11.13;;;13.60;99.90;;;;;;5051560;28;20203;-76
2021/10/05 00:45:52;;;;;;;14.50;9.38;;;13.60;99.90;;;;;;5051507;28;20723;-75
2021/10/05 00:48:20;;;;;;;17.05;11.15;;;13.50;99.90;;;;;;5051485;28;20294;-77
2021/10/05 00:50:48;;;;;;;18.27;11.85;;;13.50;99.90;;;;;;5051429;28;20522;-75
2021/10/05 00:53:18;;;;;;;14.68;9.93;;;13.40;99.90;;;;;;5052026;28;20599;-76
2021/10/05 00:55:45;;;;;;;16.65;11.30;;;13.40;99.90;;;;;;5056871;28;20277;-76
2021/10/05 00:58:12;;;;;;;19.45;11.50;;;13.40;99.90;;;;;;5055889;28;20207;-73
2021/10/05 01:00:39;;;;;;;18.95;10.82;;;13.30;99.90;;;;;;5055508;28;20203;-75
2021/10/05 01:03:06;;;;;;;15.88;10.77;;;13.30;99.90;;;;;;5055061;28;20286;-76
2021/10/05 01:05:35;;;;;;;17.70;11.40;;;13.30;99.90;;;;;;5055466;28;20483;-76
2021/10/05 01:08:02;;;;;;;19.42;11.82;;;13.40;99.90;;;;;;5055216;28;20203;-76
2021/10/05 01:10:29;;;;;;;19.17;11.20;;;13.30;99.90;;;;;;5055108;28;20668;-77
2021/10/05 01:12:56;;;;;;;18.20;11.07;;;13.30;99.90;;;;;;5054612;28;20313;-76
2021/10/05 01:15:26;;;;;;;19.08;11.43;;;13.30;99.90;;;;;;5054960;28;20779;-76
2021/10/05 01:17:53;;;;;;;19.85;11.82;;;13.30;99.90;;;;;;5054769;28;20265;-76
2021/10/05 01:20:20;;;;;;;16.67;11.27;;;13.30;99.90;;;;;;5055585;28;20203;-74
2021/10/05 01:22:49;;;;;;;17.38;9.93;;;13.30;99.90;;;;;;5055348;28;20210;-74
2021/10/05 01:25:17;;;;;;;18.55;11.32;;;13.30;99.90;;;;;;5055176;28;20219;-75
2021/10/05 01:27:46;;;;;;;18.73;11.77;;;13.30;99.90;;;;;;5055040;28;20669;-74
2021/10/05 01:30:13;;;;;;;19.00;11.80;;;13.30;99.90;;;;;;5055094;28;20294;-74
2021/10/05 01:32:40;;;;;;;17.63;11.63;;;13.20;99.90;;;;;;5055297;28;20219;-74
2021/10/05 01:35:08;;;;;;;18.95;11.13;;;13.20;99.90;;;;;;5055867;28;20204;-75
2021/10/05 01:37:35;;;;;;;18.42;10.60;;;13.30;99.90;;;;;;5056096;28;20688;-75
2021/10/05 01:40:05;;;;;;;24.77;11.70;;;13.30;99.90;;;;;;5055299;28;20204;-75
2021/10/05 01:42:32;;;;;;;19.85;12.23;;;13.30;99.90;;;;;;5055402;28;20253;-74
2021/10/05 01:44:59;;;;;;;20.85;12.25;;;13.30;99.90;;;;;;5054640;28;20199;-74
2021/10/05 01:47:25;;;;;;;25.25;12.35;;;13.30;99.90;;;;;;5055241;28;20226;-75
2021/10/05 01:49:52;;;;;;;19.73;10.82;;;13.30;99.90;;;;;;5054990;28;20204;-74
2021/10/05 01:52:19;;;;;;;22.95;12.52;;;13.30;99.90;;;;;;5054233;28;20227;-74
2021/10/05 01:54:46;;;;;;;19.38;10.82;;;13.30;99.90;;;;;;5054618;28;20209;-74
2021/10/05 01:57:14;;;;;;;22.40;12.48;;;13.20;99.90;;;;;;5054494;28;20585;-74
2021/10/05 01:59:41;;;;;;;21.70;12.70;;;13.20;99.90;;;;;;5054986;28;20200;-73
2021/10/05 02:02:08;;;;;;;21.42;11.27;;;13.40;99.90;;;;;;5055453;28;20210;-74
2021/10/05 02:04:35;;;;;;;20.10;12.32;;;13.40;99.90;;;;;;5055725;28;20737;-75
2021/10/05 02:07:02;;;;;;;20.77;11.75;;;13.60;99.90;;;;;;5055069;28;20315;-74
2021/10/05 02:09:30;;;;;;;18.95;11.27;;;13.60;99.90;;;;;;5056269;28;20302;-73
2021/10/05 02:11:57;;;;;;;17.58;11.52;;;13.70;99.90;;;;;;5055695;28;20204;-74
2021/10/05 02:14:25;;;;;;;18.98;11.05;;;13.80;99.90;;;;;;5056704;28;20326;-74
2021/10/05 02:16:52;;;;;;;20.77;12.07;;;13.80;99.90;;;;;;5056571;28;20224;-74
2021/10/05 02:19:19;;;;;;;16.42;11.82;;;13.70;99.90;;;;;;5056030;28;20208;-74
2021/10/05 02:21:46;;;;;;;19.55;12.40;;;13.70;99.90;;;;;;5053953;28;20243;-77
2021/10/05 02:26:57;;;;;;;17.63;11.13;;;13.70;99.90;;;;;;5053717;28;20245;-73
2021/10/05 02:29:26;;;;;;;17.38;11.60;;;13.80;99.90;;;;;;5053685;28;20207;-75
2021/10/05 02:31:53;;;;;;;17.15;10.30;;;13.80;99.90;;;;;;5053166;28;20299;-74
2021/10/05 02:34:20;;;;;;;19.13;11.68;;;13.70;99.90;;;;;;5053378;28;20310;-76
2021/10/05 02:36:48;;;;;;;20.20;11.30;;;13.50;99.90;;;;;;5053164;28;20740;-76
2021/10/05 02:39:15;;;;;;;18.55;12.45;;;13.50;99.90;;;;;;5053141;28;20577;-77
2021/10/05 02:41:42;;;;;;;19.80;11.70;;;13.40;99.90;;;;;;5055057;28;20299;-73
2021/10/05 02:44:09;;;;;;;18.90;11.77;;;13.30;99.90;;;;;;5055264;28;20199;-74
2021/10/05 02:46:37;;;;;;;19.58;11.50;;;13.30;99.90;;;;;;5055061;28;20229;-74
2021/10/05 02:49:04;;;;;;;23.80;12.20;;;13.40;99.90;;;;;;5054665;28;20298;-74
2021/10/05 02:51:31;;;;;;;18.15;10.93;;;13.50;99.90;;;;;;5054816;28;20203;-75
2021/10/05 02:53:58;;;;;;;20.25;10.80;;;13.40;99.90;;;;;;5054302;28;20219;-75
2021/10/05 02:56:25;;;;;;;17.35;10.27;;;13.40;99.90;;;;;;5054540;28;20233;-75
2021/10/05 02:58:52;;;;;;;21.25;10.82;;;13.30;99.90;;;;;;5054389;28;20208;-74
2021/10/05 03:01:19;;;;;;;21.35;11.23;;;13.30;99.90;;;;;;5054304;28;20199;-74
2021/10/05 03:03:47;;;;;;;21.13;12.07;;;13.20;99.90;;;;;;5054587;28;20295;-74
2021/10/05 03:06:14;;;;;;;18.08;10.82;;;13.40;99.90;;;;;;5054298;28;20223;-74
2021/10/05 03:08:42;;;;;;;18.80;11.85;;;13.40;99.90;;;;;;5054993;28;20298;-74
2021/10/05 03:11:10;;;;;;;19.45;11.50;;;13.50;99.90;;;;;;5054562;28;20657;-74
2021/10/05 03:13:37;;;;;;;17.45;10.93;;;13.70;99.90;;;;;;5054281;28;20224;-74
2021/10/05 03:16:05;;;;;;;19.83;10.55;;;13.80;99.90;;;;;;5054177;28;20220;-74
2021/10/05 03:18:32;;;;;;;17.17;9.65;;;13.80;99.90;;;;;;5054287;28;20229;-74
2021/10/05 03:21:01;;;;;;;20.35;11.07;;;13.80;99.90;;;;;;5054674;28;20212;-74
2021/10/05 03:23:28;;;;;;;17.88;11.13;;;13.90;99.90;;;;;;5055813;28;20263;-74
2021/10/05 03:25:55;;;;;;;19.80;10.88;;;13.80;99.90;;;;;;5054916;28;20239;-75
2021/10/05 03:28:22;;;;;;;15.20;10.48;;;13.80;99.90;;;;;;5055081;28;20208;-75
2021/10/05 03:30:49;;;;;;;15.18;9.00;;;13.80;99.90;;;;;;5054268;28;20297;-75
2021/10/05 03:33:16;;;;;;;16.20;9.32;;;13.70;99.90;;;;;;5053836;28;20231;-74
2021/10/05 03:35:42;;;;;;;18.83;9.32;;;13.60;99.90;;;;;;5053904;28;20223;-74
2021/10/05 03:38:11;;;;;;;13.55;8.65;;;13.50;99.90;;;;;;5053941;28;20294;-75
2021/10/05 03:40:37;;;;;;;20.85;12.05;;;13.40;99.90;;;;;;5053813;28;20200;-75
2021/10/05 03:43:04;;;;;;;21.08;10.98;;;13.40;99.90;;;;;;5053629;28;20660;-74
2021/10/05 03:45:31;;;;;;;24.17;12.70;;;13.30;99.90;;;;;;5053785;28;20223;-75
2021/10/05 03:47:58;;;;;;;22.35;12.13;;;13.30;99.90;;;;;;5053512;28;20199;-74
2021/10/05 03:50:25;;;;;;;21.08;11.38;;;13.40;99.90;;;;;;5053955;28;20233;-75
2021/10/05 03:52:52;;;;;;;25.92;12.18;;;13.40;99.90;;;;;;5053978;28;20299;-74
2021/10/05 03:55:20;;;;;;;17.90;10.63;;;13.50;99.90;;;;;;5054128;28;20199;-75
2021/10/05 03:57:47;;;;;;;18.23;9.73;;;13.50;99.90;;;;;;5054307;28;20234;-75
2021/10/05 04:00:15;;;;;;;20.98;10.68;;;13.50;99.90;;;;;;5054572;28;20206;-75
2021/10/05 04:02:42;;;;;;;19.27;10.63;;;13.60;99.90;;;;;;5054199;28;20290;-74
2021/10/05 04:05:10;;;;;;;16.05;9.65;;;13.50;99.90;;;;;;5053650;28;20620;-75
2021/10/05 04:07:37;;;;;;;19.52;11.55;;;13.50;99.90;;;;;;5053407;28;20687;-75
2021/10/05 04:10:05;;;;;;;21.92;11.32;;;13.50;99.90;;;;;;5053698;28;20210;-75
2021/10/05 04:12:33;;;;;;;20.02;11.52;;;13.50;99.90;;;;;;5053418;28;20206;-74
2021/10/05 04:15:00;;;;;;;17.52;10.60;;;13.50;99.90;;;;;;5053765;28;20227;-75
2021/10/05 04:17:27;;;;;;;17.02;10.02;;;13.50;99.90;;;;;;5054470;28;20319;-74
2021/10/05 04:19:54;;;;;;;16.17;9.25;;;13.70;99.90;;;;;;5053898;28;20207;-75
2021/10/05 04:22:21;;;;;;;19.75;9.55;;;13.60;99.90;;;;;;5054308;28;20291;-74
2021/10/05 04:24:47;;;;;;;16.92;9.27;;;13.80;99.90;;;;;;5054268;28;20314;-74
2021/10/05 04:27:14;;;;;;;13.30;7.78;;;13.90;99.90;;;;;;5054043;28;20312;-75
2021/10/05 04:29:43;;;;;;;16.05;8.98;;;14.10;99.90;;;;;;5056807;28;20325;-75
2021/10/05 04:32:11;;;;;;;15.27;8.98;;;14.00;99.90;;;;;;5057641;28;20204;-74
2021/10/05 04:34:38;;;;;;;15.45;8.75;;;14.00;99.90;;;;;;5058428;28;20225;-75
2021/10/05 04:37:06;;;;;;;15.52;8.65;;;14.00;99.90;;;;;;5058477;28;20227;-75
2021/10/05 04:39:33;;;;;;;15.32;8.80;;;14.00;99.90;;;;;;5058045;28;20200;-75
2021/10/05 04:42:01;;;;;;;17.05;8.73;;;13.80;99.90;;;;;;5056996;28;20203;-74
2021/10/05 04:44:28;;;;;;;16.70;8.65;;;13.70;99.90;;;;;;5057168;28;20205;-75
2021/10/05 04:46:56;;;;;;;16.38;8.57;;;13.50;99.90;;;;;;5056729;28;20226;-74
2021/10/05 04:49:23;;;;;;;15.15;8.18;;;13.40;99.90;;;;;;5056811;28;20298;-75
2021/10/05 04:51:49;;;;;;;15.73;9.15;;;13.30;99.90;;;;;;5056727;28;20207;-74
2021/10/05 04:54:16;;;;;;;17.73;8.70;;;13.20;99.90;;;;;;5056744;28;20781;-75
2021/10/05 04:56:43;;;;;;;15.38;8.30;;;13.20;99.90;;;;;;5056863;28;20310;-75
2021/10/05 04:59:10;;;;;;;14.43;8.73;;;13.20;99.90;;;;;;5057301;28;20298;-75
2021/10/05 05:01:37;;;;;;;12.07;7.65;;;13.30;99.90;;;;;;5056833;28;20203;-75
2021/10/05 05:04:05;;;;;;;15.27;8.35;;;13.30;99.90;;;;;;5057273;28;20282;-75
2021/10/05 05:06:32;;;;;;;11.82;7.63;;;13.30;99.90;;;;;;5056809;28;20219;-75
2021/10/05 05:08:59;;;;;;;14.02;8.43;;;13.30;99.90;;;;;;5058403;28;20290;-75
2021/10/05 05:11:25;;;;;;;17.08;8.27;;;13.50;99.90;;;;;;5058514;28;20206;-75
2021/10/05 05:13:52;;;;;;;13.77;7.93;;;13.60;99.90;;;;;;5058083;28;20233;-75
2021/10/05 05:16:19;;;;;;;13.27;7.72;;;13.60;99.90;;;;;;5058416;28;20249;-75
2021/10/05 05:18:46;;;;;;;12.50;7.28;;;13.60;99.90;;;;;;5058950;28;20298;-75
2021/10/05 05:21:14;;;;;;;14.50;7.28;;;13.60;99.90;;;;;;5059004;28;20290;-74
2021/10/05 05:23:41;;;;;;;8.88;6.63;;;13.70;99.90;;;;;;5058676;28;20285;-74
2021/10/05 05:26:08;;;;;;;12.27;7.15;;;13.80;99.90;;;;;;5058751;28;20231;-74
2021/10/05 05:28:34;;;;;;;11.70;6.93;;;14.00;99.90;;;;;;5058259;28;20290;-75
2021/10/05 05:31:01;;;;;;;14.00;8.30;;;14.00;99.90;;;;;;5058441;28;20295;-74
2021/10/05 05:33:28;;;;;;;10.65;6.68;;;14.00;99.90;;;;;;5058600;28;20214;-74
2021/10/05 05:35:55;;;;;;;14.35;7.88;;;14.10;99.90;;;;;;5058374;28;20315;-74
2021/10/05 05:38:23;;;;;;;11.20;7.00;;;14.10;99.90;;;;;;5057635;28;20213;-74
2021/10/05 05:40:51;;;;;;;9.57;6.93;;;14.20;99.90;;;;;;5056959;28;20291;-74
2021/10/05 05:43:17;;;;;;;10.68;7.40;;;14.20;99.90;;;;;;5058456;28;20211;-74
2021/10/05 05:45:44;;;;;;;10.63;6.68;;;14.20;99.90;;;;;;5057931;28;20227;-74
2021/10/05 05:48:11;;;;;;;10.80;7.30;;;14.20;99.90;;;;;;5058587;28;20200;-74
2021/10/05 05:50:38;;;;;;;12.55;7.80;;;14.20;99.90;;;;;;5058761;28;20761;-74
2021/10/05 05:53:05;;;;;;;11.93;6.80;;;14.20;99.90;;;;;;5057576;28;20204;-74
2021/10/05 05:55:33;;;;;;;10.40;7.30;;;14.00;99.90;;;;;;5057098;28;20693;-74
2021/10/05 05:58:07;;;;;;;10.63;7.05;;;14.00;99.90;;;;;;5056671;28;20246;-74
2021/10/05 06:00:34;;;;;;;10.93;7.07;;;13.80;99.90;;;;;;5057727;28;20200;-74
2021/10/05 06:03:01;;;;;;;12.02;7.90;;;13.90;99.90;;;;;;5057768;28;20208;-74
2021/10/05 06:05:28;;;;;;;13.35;7.40;;;14.00;99.90;;;;;;5057956;28;20249;-74
2021/10/05 06:07:55;;;;;;;12.20;6.10;;;14.00;99.90;;;;;;5057814;28;20299;-74
2021/10/05 06:10:22;;;;;;;11.68;7.20;;;14.10;99.90;;;;;;5057629;28;20298;-74
2021/10/05 06:12:50;;;;;;;12.48;7.03;;;14.10;99.90;;;;;;5056444;28;20234;-74
2021/10/05 06:15:19;;;;;;;11.82;6.78;;;13.90;99.90;;;;;;5057347;28;20228;-75
2021/10/05 06:17:47;;;;;;;10.40;6.47;;;13.90;99.90;;;;;;5057703;28;20210;-74
2021/10/05 06:20:16;;;;;;;10.38;6.63;;;14.00;99.90;;;;;;5057929;28;20641;-74
2021/10/05 06:22:43;;;;;;;11.73;6.40;;;14.00;99.90;;;;;;5057136;28;20588;-74
2021/10/05 06:25:13;;;;;;;10.70;6.80;;;14.00;99.90;;;;;;5056939;28;20678;-74
2021/10/05 06:27:40;;;;;;;12.60;6.40;;;14.20;99.90;;;;;;5057124;28;20200;-74
2021/10/05 06:30:11;;;;;;;11.73;6.65;;;14.20;99.90;;;;;;5057725;28;20293;-74
2021/10/05 06:32:37;;;;;;;9.63;6.60;;;14.20;99.90;;;;;;5056571;28;20210;-74
2021/10/05 06:35:06;;;;;;;12.50;6.85;;;14.20;99.90;;;;;;5056211;28;20224;-74
2021/10/05 06:37:32;;;;;;;9.48;6.15;;;14.30;99.90;;;;;;5057154;28;20262;-74
2021/10/05 06:39:59;;;;;;;11.98;7.32;;;14.20;99.90;;;;;;5057005;28;20200;-74
2021/10/05 06:42:28;;;;;;;10.15;6.45;;;14.10;99.90;;;;;;5057258;28;20208;-74
2021/10/05 06:44:55;;;;;;;13.57;7.57;;;14.10;99.90;;;;;;5057148;28;20200;-74
2021/10/05 06:47:23;;;;;;;8.55;6.50;;;14.00;99.90;;;;;;5057345;28;20227;-74
2021/10/05 06:49:50;;;;;;;12.48;6.90;;;14.00;99.90;;;;;;5055872;28;20654;-74
2021/10/05 06:52:17;;;;;;;10.65;6.57;;;13.80;99.90;;;;;;5054747;28;20214;-74
2021/10/05 06:54:44;;;;;;;12.02;6.35;;;13.70;99.90;;;;;;5054795;28;20241;-74
2021/10/05 06:57:10;;;;;;;11.43;5.85;;;13.70;99.90;;;;;;5055012;28;20315;-74
2021/10/05 06:59:37;;;;;;;13.00;6.97;;;13.80;99.90;;;;;;5054573;28;20294;-74
2021/10/05 07:02:04;;;;;;;9.20;6.15;;;13.90;99.90;;;;;;5054227;28;20207;-74
2021/10/05 07:04:32;;;;;;;9.63;6.60;;;13.90;99.90;;;;;;5054438;28;20290;-74
2021/10/05 07:06:59;;;;;;;11.10;6.63;;;13.80;99.90;;;;;;5054402;28;20316;-74
2021/10/05 07:09:26;;;;;;;11.43;6.45;;;13.80;99.90;;;;;;5054266;28;20700;-74
2021/10/05 07:11:53;;;;;;;10.98;7.07;;;13.80;99.90;;;;;;5054122;28;20199;-73
2021/10/05 07:14:20;;;;;;;9.93;7.00;;;13.90;99.90;;;;;;5054150;28;20251;-74
2021/10/05 07:16:47;;;;;;;15.48;8.77;;;14.00;99.90;;;;;;5053925;28;20315;-74
2021/10/05 07:19:13;;;;;;;11.00;7.45;;;14.00;99.90;;;;;;5051662;28;20292;-72
2021/10/05 07:21:42;;;;;;;8.35;5.47;;;14.10;99.90;;;;;;5055384;28;20662;-73
2021/10/05 07:24:08;;;;;;;11.18;6.82;;;14.30;99.90;;;;;;5052885;28;20698;-73
2021/10/05 07:26:35;;;;;;;8.25;5.07;;;14.30;99.90;;;;;;5052297;28;20720;-73
2021/10/05 07:29:02;;;;;;;10.10;5.18;;;14.30;99.90;;;;;;5052729;28;20544;-72
2021/10/05 07:31:34;;;;;;;8.75;5.35;;;14.20;99.90;;;;;;5052902;28;20204;-72
2021/10/05 07:34:01;;;;;;;8.45;5.15;;;14.30;99.90;;;;;;5052722;28;20637;-72
2021/10/05 07:36:28;;;;;;;7.53;4.90;;;14.40;99.90;;;;;;5052821;28;20224;-71
2021/10/05 07:38:56;;;;;;;7.90;4.75;;;14.40;99.90;;;;;;5052826;28;20578;-71
2021/10/05 07:41:23;;;;;;;8.25;5.03;;;14.50;99.90;;;;;;5052528;28;20204;-71
2021/10/05 07:43:50;;;;;;;9.57;6.70;;;14.50;99.90;;;;;;5052661;28;20299;-72
2021/10/05 07:46:17;;;;;;;9.05;4.93;;;14.50;99.90;;;;;;5052532;28;20723;-71
2021/10/05 07:48:44;;;;;;;7.07;4.43;;;14.50;99.90;;;;;;5052576;28;20208;-72
2021/10/05 07:51:11;;;;;;;7.88;4.93;;;14.50;99.90;;;;;;5052724;28;20299;-71
2021/10/05 07:53:38;;;;;;;8.07;4.55;;;14.60;99.90;;;;;;5052399;28;20204;-71
2021/10/05 07:56:07;;;;;;;6.90;4.80;;;14.60;99.90;;;;;;5052424;28;20260;-71
2021/10/05 07:58:36;;;;;;;8.32;5.13;;;14.60;99.90;;;;;;5052813;28;20204;-73
2021/10/05 08:01:03;;;;;;;6.15;4.50;;;14.60;99.90;;;;;;5052482;28;20201;-73
2021/10/05 08:03:29;;;;;;;8.13;4.90;;;14.60;99.90;;;;;;5051471;28;20203;-73
2021/10/05 08:05:56;;;;;;;6.13;4.65;;;14.70;99.90;;;;;;5053105;28;20226;-73
2021/10/05 08:08:23;;;;;;;6.40;4.95;;;14.80;99.90;;;;;;5053452;28;20631;-73
2021/10/05 08:10:50;;;;;;;5.70;4.50;;;14.80;99.90;;;;;;5053448;28;20205;-73
2021/10/05 08:13:18;;;;;;;7.40;5.32;;;14.90;99.90;;;;;;5053263;28;20313;-73
2021/10/05 08:15:45;;;;;;;6.47;5.00;;;14.90;99.90;;;;;;5053502;28;20230;-73
2021/10/05 08:18:12;;;;;;;6.07;4.40;;;14.90;99.90;;;;;;5053416;28;20682;-73
2021/10/05 08:20:39;;;;;;;10.20;5.18;;;15.00;99.90;;;;;;5053345;28;20248;-74
2021/10/05 08:23:06;;;;;;;8.65;5.25;;;15.10;99.90;;;;;;5053223;28;20280;-73
2021/10/05 08:25:33;;;;;;;4.82;4.05;;;15.10;99.90;;;;;;5053083;28;20655;-73
2021/10/05 08:28:00;;;;;;;8.63;5.03;;;15.20;99.90;;;;;;5053069;28;20210;-73
2021/10/05 08:30:29;;;;;;;7.97;4.95;;;15.20;99.90;;;;;;5053199;28;20304;-73
2021/10/05 08:32:56;;;;;;;7.35;4.40;;;15.30;99.90;;;;;;5053093;28;20210;-73
2021/10/05 08:35:23;;;;;;;8.30;5.55;;;15.30;99.90;;;;;;5053087;28;20318;-73
2021/10/05 08:37:52;;;;;;;8.20;5.15;;;15.40;99.90;;;;;;5052925;28;20205;-73
2021/10/05 08:40:19;;;;;;;6.90;4.10;;;15.40;99.90;;;;;;5053014;28;20700;-73
2021/10/05 08:42:47;;;;;;;8.23;4.85;;;15.40;99.90;;;;;;5052991;28;20205;-73
2021/10/05 08:45:13;;;;;;;7.57;4.82;;;15.40;99.90;;;;;;5053078;28;20297;-73
2021/10/05 08:47:42;;;;;;;7.05;4.93;;;15.50;99.90;;;;;;5053190;28;20207;-73
2021/10/05 08:50:10;;;;;;;7.30;4.63;;;15.50;99.90;;;;;;5052991;28;20673;-73
2021/10/05 08:52:37;;;;;;;4.82;3.50;;;15.60;99.90;;;;;;5052861;28;20211;-73
2021/10/05 08:55:05;;;;;;;5.03;3.80;;;15.70;99.90;;;;;;5052965;28;20229;-73
2021/10/05 08:57:32;;;;;;;9.35;5.50;;;15.70;99.90;;;;;;5052716;28;20729;-73
2021/10/05 09:00:04;;;;;;;6.80;4.60;;;15.80;99.90;;;;;;5052997;28;20206;-73
2021/10/05 09:02:45;;;;;;;3.63;2.85;;;15.80;99.90;;;;;;5052667;28;20228;-73
2021/10/05 09:05:13;;;;;;;2.60;2.33;;;15.90;99.90;;;;;;5052874;28;20589;-73
2021/10/05 09:07:44;;;;;;;3.50;2.63;;;15.80;99.90;;;;;;5052985;28;20629;-73
2021/10/05 09:10:13;;;;;;;4.05;2.47;;;15.80;99.90;;;;;;5052905;28;20206;-73
2021/10/05 09:12:40;;;;;;;3.30;2.60;;;15.80;99.90;;;;;;5052733;28;20206;-73
2021/10/05 09:15:09;;;;;;;2.30;2.10;;;15.70;99.90;;;;;;5054202;28;20230;-73
2021/10/05 09:17:36;;;;;;;3.25;2.55;;;15.70;99.90;;;;;;5056524;28;20297;-73
2021/10/05 09:20:16;;;;;;;3.70;2.40;;;15.60;99.90;;;;;;5056412;28;20631;-73
2021/10/05 09:22:43;;;;;;;3.28;2.25;;;15.60;99.90;;;;;;5056217;28;20220;-72
2021/10/05 09:25:11;;;;;;;4.22;2.80;;;15.60;99.90;;;;;;5056077;28;20206;-73
2021/10/05 09:27:48;;;;;;;2.65;2.05;;;15.50;99.90;;;;;;5055996;28;20698;-73
2021/10/05 09:30:16;;;;;;;2.67;2.47;;;15.60;99.90;;;;;;5056261;28;20568;-73
2021/10/05 09:32:43;;;;;;;3.25;2.10;;;15.60;99.90;;;;;;5055839;28;20735;-73
2021/10/05 09:35:12;;;;;;;2.63;2.40;;;15.70;99.90;;;;;;5056024;28;20628;-73
2021/10/05 09:37:38;;;;;;;4.93;2.85;;;15.80;99.90;;;;;;5056107;28;20210;-73
2021/10/05 09:40:10;;;;;;;3.30;2.40;;;15.80;99.90;;;;;;5055978;28;20756;-73
2021/10/05 09:42:39;;;;;;;2.70;1.92;;;15.90;99.90;;;;;;5055621;28;20738;-73
2021/10/05 09:45:09;;;;;;;2.83;2.50;;;15.90;99.90;;;;;;5055914;28;20242;-73
2021/10/05 09:47:37;;;;;;;3.72;2.55;;;15.90;99.90;;;;;;5055868;28;20223;-73
2021/10/05 09:50:09;;;;;;;3.22;2.50;;;15.90;99.90;;;;;;5055967;28;20232;-73
2021/10/05 09:52:47;;;;;;;3.55;2.85;;;15.90;99.90;;;;;;5055553;28;20209;-73
2021/10/05 09:55:15;;;;;;;3.78;2.53;;;15.90;99.90;;;;;;5055617;28;20232;-73
2021/10/05 09:57:42;;;;;;;3.08;2.72;;;15.90;99.90;;;;;;5055763;28;20290;-73
2021/10/05 10:00:10;;;;;;;3.50;2.20;;;15.90;99.90;;;;;;5056016;28;20210;-73
2021/10/05 10:02:38;;;;;;;4.18;2.65;;;15.90;99.90;;;;;;5055215;28;20212;-73
2021/10/05 10:05:08;;;;;;;2.58;2.38;;;16.00;99.90;;;;;;5055286;28;20332;-73
2021/10/05 10:07:37;;;;;;;3.13;2.70;;;16.10;99.90;;;;;;5055585;28;20229;-73
2021/10/05 10:10:10;;;;;;;3.30;2.60;;;16.10;99.90;;;;;;5055445;28;20203;-73
2021/10/05 10:12:38;;;;;;;3.60;2.50;;;16.10;99.90;;;;;;5055350;28;20213;-73
2021/10/05 10:15:07;;;;;;;3.08;2.35;;;16.10;99.90;;;;;;5055324;28;20226;-73
2021/10/05 10:17:34;;;;;;;2.67;2.30;;;16.20;99.90;;;;;;5055188;28;20226;-73
2021/10/05 10:20:01;;;;;;;2.35;2.20;;;16.20;99.90;;;;;;5055282;28;20202;-72
2021/10/05 10:22:29;;;;;;;2.67;2.13;;;16.20;99.90;;;;;;5055058;28;20310;-73
2021/10/05 10:24:57;;;;;;;3.35;2.22;;;16.20;99.90;;;;;;5055073;28;20301;-73
2021/10/05 10:27:26;;;;;;;2.05;1.85;;;16.20;99.90;;;;;;5054374;28;20321;-72
2021/10/05 10:29:53;;;;;;;3.20;2.75;;;16.30;99.90;;;;;;5055078;28;20233;-73
2021/10/05 10:32:25;;;;;;;3.30;2.17;;;16.40;99.90;;;;;;5054760;28;20593;-72
2021/10/05 10:35:03;;;;;;;2.45;2.00;;;16.40;99.90;;;;;;5054956;28;20214;-73
2021/10/05 10:37:42;;;;;;;2.10;1.90;;;16.50;99.90;;;;;;5054966;28;20234;-72
2021/10/05 10:40:10;;;;;;;3.17;2.55;;;16.50;99.90;;;;;;5054932;28;20623;-73
2021/10/05 10:42:38;;;;;;;2.28;1.70;;;16.50;99.90;;;;;;5054471;28;20240;-73
2021/10/05 10:45:13;;;;;;;2.55;1.75;;;16.40;99.90;;;;;;5054596;28;20199;-72
2021/10/05 10:47:41;;;;;;;2.50;2.30;;;16.50;99.90;;;;;;5054828;28;20273;-73
2021/10/05 10:50:10;;;;;;;2.10;1.90;;;16.50;99.90;;;;;;5054530;28;20211;-73
2021/10/05 10:52:40;;;;;;;2.47;2.28;;;16.60;99.90;;;;;;5054295;28;20299;-73
2021/10/05 10:55:09;;;;;;;2.25;1.88;;;16.70;99.90;;;;;;5054480;28;20223;-73
2021/10/05 10:57:39;;;;;;;2.40;1.80;;;16.90;99.90;;;;;;5054777;28;20223;-73
2021/10/05 11:00:25;;;;;;;2.47;2.08;;;16.90;99.90;;;;;;5054541;28;20206;-73
2021/10/05 11:02:53;;;;;;;2.35;2.15;;;17.00;99.90;;;;;;5054244;28;20687;-73
2021/10/05 11:05:22;;;;;;;2.10;2.00;;;16.80;99.90;;;;;;5054194;28;20298;-73
2021/10/05 11:07:49;;;;;;;2.20;2.00;;;16.80;99.90;;;;;;5054355;28;20203;-73
2021/10/05 11:10:17;;;;;;;1.77;1.67;;;16.70;99.90;;;;;;5054331;28;20564;-73
2021/10/05 11:12:52;;;;;;;2.13;1.67;;;16.80;99.90;;;;;;5054121;28;20203;-73
2021/10/05 11:15:31;;;;;;;1.88;1.77;;;16.80;99.90;;;;;;5053982;28;20711;-73
2021/10/05 11:18:03;;;;;;;1.42;1.33;;;16.70;99.90;;;;;;5054232;28;20553;-73
2021/10/05 11:20:30;;;;;;;1.70;1.48;;;16.70;99.90;;;;;;5053944;28;20572;-73
2021/10/05 11:23:00;;;;;;;1.63;1.52;;;16.60;99.90;;;;;;5053931;28;20393;-73
2021/10/05 11:25:27;;;;;;;1.65;1.55;;;16.70;99.90;;;;;;5053851;28;20764;-73
2021/10/05 11:27:55;;;;;;;1.90;1.80;;;16.50;99.90;;;;;;5054290;28;20299;-73
2021/10/05 11:30:22;;;;;;;1.55;1.45;;;16.50;99.90;;;;;;5053914;28;20738;-73
2021/10/05 11:32:49;;;;;;;2.42;1.40;;;16.60;99.90;;;;;;5053530;28;20671;-73
2021/10/05 11:35:16;;;;;;;1.45;1.35;;;16.70;99.90;;;;;;5053641;28;20273;-73
2021/10/05 11:37:43;;;;;;;3.58;1.40;;;16.70;99.90;;;;;;5053582;28;20293;-73
2021/10/05 11:40:11;;;;;;;1.35;1.25;;;17.00;99.90;;;;;;5053837;28;20206;-74
2021/10/05 11:42:38;;;;;;;1.25;1.15;;;17.20;99.90;;;;;;5053384;28;20200;-73
2021/10/05 11:45:09;;;;;;;1.27;1.23;;;17.50;99.90;;;;;;5053689;28;20290;-73
2021/10/05 11:47:36;;;;;;;1.00;1.00;;;17.80;99.90;;;;;;5053736;28;20230;-73
2021/10/05 11:50:06;;;;;;;1.50;1.40;;;17.80;99.90;;;;;;5053696;28;20298;-73
2021/10/05 11:52:39;;;;;;;1.50;1.40;;;17.80;99.90;;;;;;5053421;28;20657;-72
2021/10/05 11:55:07;;;;;;;1.63;1.52;;;17.50;99.90;;;;;;5053723;28;20214;-73
2021/10/05 11:57:36;;;;;;;1.80;1.60;;;17.40;99.90;;;;;;5053370;28;20699;-73
2021/10/05 12:00:09;;;;;;;1.30;1.30;;;17.50;99.90;;;;;;5053639;28;20265;-73
2021/10/05 12:02:40;;;;;;;1.50;1.40;;;17.50;99.90;;;;;;5053441;28;20286;-73
2021/10/05 12:05:07;;;;;;;2.45;2.25;;;17.50;99.90;;;;;;5053953;28;20241;-73
2021/10/05 12:07:38;;;;;;;1.33;1.23;;;17.40;99.90;;;;;;5053653;28;20215;-73
2021/10/05 12:10:07;;;;;;;1.33;1.23;;;17.30;99.90;;;;;;5053448;28;20207;-72
2021/10/05 12:12:35;;;;;;;1.60;1.30;;;17.20;99.90;;;;;;5053041;28;20250;-73
2021/10/05 12:15:06;;;;;;;1.75;1.20;;;17.20;99.90;;;;;;5053416;28;20290;-73
2021/10/05 12:17:34;;;;;;;2.22;1.60;;;17.10;99.90;;;;;;5053388;28;20314;-73
2021/10/05 12:20:04;;;;;;;0.95;0.95;;;17.20;99.90;;;;;;5053370;28;20310;-73
2021/10/05 12:22:33;;;;;;;0.90;0.90;;;17.30;99.90;;;;;;5052972;28;20199;-73
2021/10/05 12:25:02;;;;;;;1.15;1.05;;;17.20;99.90;;;;;;5053203;28;20215;-73
2021/10/05 12:27:38;;;;;;;1.63;1.50;;;17.30;99.90;;;;;;5053330;28;20255;-73
2021/10/05 12:30:09;;;;;;;0.98;0.98;;;17.40;99.90;;;;;;5053390;28;20203;-73
2021/10/05 12:32:41;;;;;;;1.27;0.98;;;17.40;99.90;;;;;;5052868;28;20679;-73
2021/10/05 12:35:20;;;;;;;1.00;1.00;;;17.50;99.90;;;;;;5053237;28;20203;-74
2021/10/05 12:37:47;;;;;;;1.10;1.00;;;17.50;99.90;;;;;;5053186;28;20212;-73
2021/10/05 12:40:14;;;;;;;0.90;0.90;;;17.50;99.90;;;;;;5053193;28;20203;-73
2021/10/05 12:42:43;;;;;;;1.40;1.25;;;17.50;99.90;;;;;;5052814;28;20204;-73
2021/10/05 12:45:13;;;;;;;1.08;0.93;;;17.50;99.90;;;;;;5053071;28;20200;-74